sensor_id;sensor_type;location;lat;lon;timestamp;pressure;altitude;pressure_sealevel;temperature;humidity
18145;BME280;14857;41.200;-8.326;2022-07-29T00:02:27;99991.72;;;21.72;100.00
18145;BME280;14857;41.200;-8.326;2022-07-29T00:04:56;99997.63;;;21.44;100.00
18145;BME280;14857;41.200;-8.326;2022-07-29T00:07:25;99914.38;;;20.76;100.00
18145;BME280;14857;41.200;-8.326;2022-07-29T00:09:54;99911.22;;;20.50;100.00
18145;BME280;14857;41.200;-8.326;2022-07-29T00:12:24;99987.81;;;20.69;100.00
18145;BME280;14857;41.200;-8.326;2022-07-29T00:14:59;99966.44;;;20.23;100.00
18145;BME280;14857;41.200;-8.326;2022-07-29T00:17:39;99968.50;;;20.05;100.00
18145;BME280;14857;41.200;-8.326;2022-07-29T00:20:16;99907.94;;;19.54;100.00
18145;BME280;14857;41.200;-8.326;2022-07-29T00:22:55;99943.41;;;19.53;100.00
18145;BME280;14857;41.200;-8.326;2022-07-29T00:25:24;99880.63;;;18.97;100.00
18145;BME280;14857;41.200;-8.326;2022-07-29T00:27:55;99880.31;;;18.92;100.00
18145;BME280;14857;41.200;-8.326;2022-07-29T00:30:23;99946.75;;;19.22;100.00
18145;BME280;14857;41.200;-8.326;2022-07-29T00:32:54;99963.78;;;19.20;100.00
18145;BME280;14857;41.200;-8.326;2022-07-29T00:35:22;99951.72;;;19.09;100.00
18145;BME280;14857;41.200;-8.326;2022-07-29T00:38:09;99878.13;;;18.55;100.00
18145;BME280;14857;41.200;-8.326;2022-07-29T00:40:46;99928.31;;;18.80;100.00
18145;BME280;14857;41.200;-8.326;2022-07-29T00:43:16;99953.34;;;18.86;100.00
18145;BME280;14857;41.200;-8.326;2022-07-29T00:45:45;99972.22;;;18.83;100.00
18145;BME280;14857;41.200;-8.326;2022-07-29T00:48:15;99876.16;;;17.99;100.00
18145;BME280;14857;41.200;-8.326;2022-07-29T00:50:49;99855.59;;;17.84;100.00
18145;BME280;14857;41.200;-8.326;2022-07-29T00:53:19;99978.09;;;18.53;100.00
18145;BME280;14857;41.200;-8.326;2022-07-29T00:55:48;99980.69;;;18.45;100.00
18145;BME280;14857;41.200;-8.326;2022-07-29T00:58:18;99904.09;;;18.01;100.00
18145;BME280;14857;41.200;-8.326;2022-07-29T01:00:49;99956.50;;;18.40;100.00
18145;BME280;14857;41.200;-8.326;2022-07-29T01:03:22;99900.31;;;18.04;100.00
18145;BME280;14857;41.200;-8.326;2022-07-29T01:05:50;99962.16;;;18.45;100.00
18145;BME280;14857;41.200;-8.326;2022-07-29T01:08:22;99960.19;;;18.47;100.00
18145;BME280;14857;41.200;-8.326;2022-07-29T01:10:54;99962.81;;;18.47;100.00
18145;BME280;14857;41.200;-8.326;2022-07-29T01:13:26;99957.50;;;18.38;100.00
18145;BME280;14857;41.200;-8.326;2022-07-29T01:15:58;99846.72;;;17.60;100.00
18145;BME280;14857;41.200;-8.326;2022-07-29T01:18:34;99878.47;;;17.60;100.00
18145;BME280;14857;41.200;-8.326;2022-07-29T01:21:24;99961.03;;;18.05;100.00
18145;BME280;14857;41.200;-8.326;2022-07-29T01:24:11;99878.03;;;17.47;100.00
18145;BME280;14857;41.200;-8.326;2022-07-29T01:26:46;99963.50;;;18.07;100.00
18145;BME280;14857;41.200;-8.326;2022-07-29T01:29:24;99940.09;;;17.94;100.00
18145;BME280;14857;41.200;-8.326;2022-07-29T01:32:10;99960.19;;;18.05;100.00
18145;BME280;14857;41.200;-8.326;2022-07-29T01:35:00;99894.34;;;17.68;100.00
18145;BME280;14857;41.200;-8.326;2022-07-29T01:37:39;99939.13;;;17.95;100.00
18145;BME280;14857;41.200;-8.326;2022-07-29T01:40:33;99970.97;;;18.11;100.00
18145;BME280;14857;41.200;-8.326;2022-07-29T01:43:11;99961.53;;;18.09;100.00
18145;BME280;14857;41.200;-8.326;2022-07-29T01:45:46;99898.91;;;17.58;100.00
18145;BME280;14857;41.200;-8.326;2022-07-29T01:48:19;99963.03;;;18.11;100.00
18145;BME280;14857;41.200;-8.326;2022-07-29T01:50:53;99951.72;;;18.01;100.00
18145;BME280;14857;41.200;-8.326;2022-07-29T01:53:30;99869.06;;;17.40;100.00
18145;BME280;14857;41.200;-8.326;2022-07-29T01:56:05;99955.75;;;17.79;100.00
18145;BME280;14857;41.200;-8.326;2022-07-29T01:58:35;99919.34;;;17.48;100.00
18145;BME280;14857;41.200;-8.326;2022-07-29T02:01:09;99972.91;;;17.75;100.00
18145;BME280;14857;41.200;-8.326;2022-07-29T02:03:43;99899.31;;;17.19;100.00
18145;BME280;14857;41.200;-8.326;2022-07-29T02:06:15;99899.78;;;17.15;100.00
18145;BME280;14857;41.200;-8.326;2022-07-29T02:08:48;99957.16;;;17.48;100.00
18145;BME280;14857;41.200;-8.326;2022-07-29T02:11:18;99830.66;;;16.76;100.00
18145;BME280;14857;41.200;-8.326;2022-07-29T02:13:47;99889.63;;;17.02;100.00
18145;BME280;14857;41.200;-8.326;2022-07-29T02:16:26;99922.94;;;17.21;100.00
18145;BME280;14857;41.200;-8.326;2022-07-29T02:18:59;99890.41;;;17.03;100.00
18145;BME280;14857;41.200;-8.326;2022-07-29T02:21:29;99902.53;;;17.05;100.00
18145;BME280;14857;41.200;-8.326;2022-07-29T02:24:01;99949.94;;;17.32;100.00
18145;BME280;14857;41.200;-8.326;2022-07-29T02:26:32;99955.00;;;17.44;100.00
18145;BME280;14857;41.200;-8.326;2022-07-29T02:29:02;99941.34;;;17.30;100.00
18145;BME280;14857;41.200;-8.326;2022-07-29T02:31:33;99954.16;;;17.43;100.00
18145;BME280;14857;41.200;-8.326;2022-07-29T02:34:06;99974.31;;;17.62;100.00
18145;BME280;14857;41.200;-8.326;2022-07-29T02:36:36;99935.78;;;17.42;100.00
18145;BME280;14857;41.200;-8.326;2022-07-29T02:39:06;99962.66;;;17.55;100.00
18145;BME280;14857;41.200;-8.326;2022-07-29T02:41:42;99946.09;;;17.45;100.00
18145;BME280;14857;41.200;-8.326;2022-07-29T02:44:15;99977.72;;;17.54;100.00
18145;BME280;14857;41.200;-8.326;2022-07-29T02:46:51;99975.53;;;17.50;100.00
18145;BME280;14857;41.200;-8.326;2022-07-29T02:49:30;99983.97;;;17.53;100.00
18145;BME280;14857;41.200;-8.326;2022-07-29T02:52:04;99978.41;;;17.39;100.00
18145;BME280;14857;41.200;-8.326;2022-07-29T02:54:39;99951.50;;;17.17;100.00
18145;BME280;14857;41.200;-8.326;2022-07-29T02:57:18;99888.66;;;16.68;100.00
18145;BME280;14857;41.200;-8.326;2022-07-29T02:59:51;99920.03;;;16.71;100.00
18145;BME280;14857;41.200;-8.326;2022-07-29T03:02:33;99908.28;;;16.65;100.00
18145;BME280;14857;41.200;-8.326;2022-07-29T03:05:03;99911.75;;;16.66;100.00
18145;BME280;14857;41.200;-8.326;2022-07-29T03:07:36;99896.03;;;16.47;100.00
18145;BME280;14857;41.200;-8.326;2022-07-29T03:10:16;99828.28;;;15.75;100.00
18145;BME280;14857;41.200;-8.326;2022-07-29T03:12:45;99994.75;;;16.54;100.00
18145;BME280;14857;41.200;-8.326;2022-07-29T03:15:17;100006.97;;;16.55;100.00
18145;BME280;14857;41.200;-8.326;2022-07-29T03:17:51;99851.75;;;15.68;100.00
18145;BME280;14857;41.200;-8.326;2022-07-29T03:20:23;99931.66;;;16.06;100.00
18145;BME280;14857;41.200;-8.326;2022-07-29T03:22:52;99890.50;;;15.95;100.00
18145;BME280;14857;41.200;-8.326;2022-07-29T03:25:29;99996.00;;;16.59;100.00
18145;BME280;14857;41.200;-8.326;2022-07-29T03:28:15;100005.53;;;16.70;100.00
18145;BME280;14857;41.200;-8.326;2022-07-29T03:30:47;99988.09;;;16.77;100.00
18145;BME280;14857;41.200;-8.326;2022-07-29T03:33:19;99918.31;;;16.35;100.00
18145;BME280;14857;41.200;-8.326;2022-07-29T03:35:48;99974.59;;;16.80;100.00
18145;BME280;14857;41.200;-8.326;2022-07-29T03:38:17;99898.56;;;16.39;100.00
18145;BME280;14857;41.200;-8.326;2022-07-29T03:40:58;99910.69;;;16.59;100.00
18145;BME280;14857;41.200;-8.326;2022-07-29T03:43:30;99983.88;;;16.84;100.00
18145;BME280;14857;41.200;-8.326;2022-07-29T03:46:04;99984.09;;;16.73;100.00
18145;BME280;14857;41.200;-8.326;2022-07-29T03:48:42;99907.28;;;16.21;100.00
18145;BME280;14857;41.200;-8.326;2022-07-29T03:51:15;99993.97;;;16.71;100.00
18145;BME280;14857;41.200;-8.326;2022-07-29T03:53:44;99893.94;;;16.23;100.00
18145;BME280;14857;41.200;-8.326;2022-07-29T03:56:15;99895.59;;;16.24;100.00
18145;BME280;14857;41.200;-8.326;2022-07-29T03:58:48;99984.16;;;16.81;100.00
18145;BME280;14857;41.200;-8.326;2022-07-29T04:04:33;99916.97;;;16.31;100.00
18145;BME280;14857;41.200;-8.326;2022-07-29T04:07:05;99996.78;;;16.69;100.00
18145;BME280;14857;41.200;-8.326;2022-07-29T04:09:34;99996.81;;;16.60;100.00
18145;BME280;14857;41.200;-8.326;2022-07-29T04:12:05;99909.03;;;16.03;100.00
18145;BME280;14857;41.200;-8.326;2022-07-29T04:14:34;99831.84;;;15.47;100.00
18145;BME280;14857;41.200;-8.326;2022-07-29T04:17:06;99999.31;;;16.52;100.00
18145;BME280;14857;41.200;-8.326;2022-07-29T04:19:36;100001.28;;;16.59;100.00
18145;BME280;14857;41.200;-8.326;2022-07-29T04:22:04;99967.81;;;16.50;100.00
18145;BME280;14857;41.200;-8.326;2022-07-29T04:24:34;99902.31;;;16.18;100.00
18145;BME280;14857;41.200;-8.326;2022-07-29T04:27:03;100003.06;;;16.86;100.00
18145;BME280;14857;41.200;-8.326;2022-07-29T04:29:31;99940.41;;;16.51;100.00
18145;BME280;14857;41.200;-8.326;2022-07-29T04:32:00;99996.94;;;16.86;100.00
18145;BME280;14857;41.200;-8.326;2022-07-29T04:34:31;99993.28;;;16.87;100.00
18145;BME280;14857;41.200;-8.326;2022-07-29T04:37:02;99997.25;;;16.83;100.00
18145;BME280;14857;41.200;-8.326;2022-07-29T04:39:30;99928.94;;;16.25;100.00
18145;BME280;14857;41.200;-8.326;2022-07-29T04:41:59;99969.31;;;16.53;100.00
18145;BME280;14857;41.200;-8.326;2022-07-29T04:44:28;99997.00;;;16.76;100.00
18145;BME280;14857;41.200;-8.326;2022-07-29T04:47:03;100001.28;;;16.77;100.00
18145;BME280;14857;41.200;-8.326;2022-07-29T04:49:32;100004.81;;;16.68;100.00
18145;BME280;14857;41.200;-8.326;2022-07-29T04:52:02;99884.47;;;15.75;100.00
18145;BME280;14857;41.200;-8.326;2022-07-29T04:54:31;99918.84;;;15.84;100.00
18145;BME280;14857;41.200;-8.326;2022-07-29T04:57:00;99921.00;;;15.61;100.00
18145;BME280;14857;41.200;-8.326;2022-07-29T04:59:39;99959.28;;;15.65;100.00
18145;BME280;14857;41.200;-8.326;2022-07-29T05:02:08;99954.88;;;15.46;100.00
18145;BME280;14857;41.200;-8.326;2022-07-29T05:04:43;99973.44;;;15.45;100.00
18145;BME280;14857;41.200;-8.326;2022-07-29T05:07:13;100032.66;;;15.79;100.00
18145;BME280;14857;41.200;-8.326;2022-07-29T05:09:42;100001.88;;;15.70;100.00
18145;BME280;14857;41.200;-8.326;2022-07-29T05:12:11;100031.50;;;16.01;100.00
18145;BME280;14857;41.200;-8.326;2022-07-29T05:14:39;99954.47;;;15.60;100.00
18145;BME280;14857;41.200;-8.326;2022-07-29T05:17:08;100039.38;;;16.10;100.00
18145;BME280;14857;41.200;-8.326;2022-07-29T05:19:36;100040.34;;;16.09;100.00
18145;BME280;14857;41.200;-8.326;2022-07-29T05:22:05;99962.34;;;15.70;100.00
18145;BME280;14857;41.200;-8.326;2022-07-29T05:24:36;100003.03;;;16.04;100.00
18145;BME280;14857;41.200;-8.326;2022-07-29T05:27:04;100025.06;;;16.13;100.00
18145;BME280;14857;41.200;-8.326;2022-07-29T05:29:33;100036.44;;;16.13;100.00
18145;BME280;14857;41.200;-8.326;2022-07-29T05:32:11;100047.66;;;16.25;100.00
18145;BME280;14857;41.200;-8.326;2022-07-29T05:34:40;99977.13;;;15.81;100.00
18145;BME280;14857;41.200;-8.326;2022-07-29T05:37:16;100040.53;;;16.35;100.00
18145;BME280;14857;41.200;-8.326;2022-07-29T05:39:47;100031.81;;;16.35;100.00
18145;BME280;14857;41.200;-8.326;2022-07-29T05:42:22;100045.50;;;16.48;100.00
18145;BME280;14857;41.200;-8.326;2022-07-29T05:44:51;100044.91;;;16.54;100.00
18145;BME280;14857;41.200;-8.326;2022-07-29T05:47:21;99982.25;;;16.19;100.00
18145;BME280;14857;41.200;-8.326;2022-07-29T05:49:50;100050.94;;;16.73;100.00
18145;BME280;14857;41.200;-8.326;2022-07-29T05:52:22;99939.13;;;16.10;100.00
18145;BME280;14857;41.200;-8.326;2022-07-29T05:54:52;100039.72;;;16.89;100.00
18145;BME280;14857;41.200;-8.326;2022-07-29T05:57:22;100052.34;;;17.13;100.00
18145;BME280;14857;41.200;-8.326;2022-07-29T05:59:52;100051.28;;;17.23;100.00
18145;BME280;14857;41.200;-8.326;2022-07-29T06:02:21;100055.97;;;17.29;100.00
18145;BME280;14857;41.200;-8.326;2022-07-29T06:04:51;100029.19;;;17.24;100.00
18145;BME280;14857;41.200;-8.326;2022-07-29T06:07:41;99892.19;;;16.59;100.00
18145;BME280;14857;41.200;-8.326;2022-07-29T06:10:28;99962.19;;;17.77;100.00
18145;BME280;14857;41.200;-8.326;2022-07-29T06:12:56;100041.03;;;19.81;100.00
18145;BME280;14857;41.200;-8.326;2022-07-29T06:15:25;100011.66;;;21.38;100.00
18145;BME280;14857;41.200;-8.326;2022-07-29T06:17:54;99944.97;;;22.42;100.00
18145;BME280;14857;41.200;-8.326;2022-07-29T06:20:27;99969.41;;;24.01;100.00
18145;BME280;14857;41.200;-8.326;2022-07-29T06:22:58;99959.78;;;25.28;100.00
18145;BME280;14857;41.200;-8.326;2022-07-29T06:25:33;99970.63;;;26.69;99.58
18145;BME280;14857;41.200;-8.326;2022-07-29T06:28:03;99971.25;;;27.83;88.85
18145;BME280;14857;41.200;-8.326;2022-07-29T06:30:31;100019.38;;;28.52;84.44
18145;BME280;14857;41.200;-8.326;2022-07-29T06:33:00;100003.22;;;29.30;80.47
18145;BME280;14857;41.200;-8.326;2022-07-29T06:35:29;100043.75;;;30.00;77.15
18145;BME280;14857;41.200;-8.326;2022-07-29T06:38:11;100045.22;;;30.65;74.29
18145;BME280;14857;41.200;-8.326;2022-07-29T06:41:01;100054.84;;;30.61;73.11
18145;BME280;14857;41.200;-8.326;2022-07-29T06:43:32;100056.81;;;31.34;69.75
18145;BME280;14857;41.200;-8.326;2022-07-29T06:46:21;100065.53;;;32.03;67.36
18145;BME280;14857;41.200;-8.326;2022-07-29T06:48:51;100053.88;;;31.36;66.29
18145;BME280;14857;41.200;-8.326;2022-07-29T06:51:20;99933.56;;;30.08;69.37
18145;BME280;14857;41.200;-8.326;2022-07-29T06:53:53;100046.47;;;31.14;69.32
18145;BME280;14857;41.200;-8.326;2022-07-29T06:56:33;100027.16;;;31.39;67.99
18145;BME280;14857;41.200;-8.326;2022-07-29T06:59:07;100053.88;;;32.02;65.67
18145;BME280;14857;41.200;-8.326;2022-07-29T07:01:37;100067.78;;;32.44;64.35
18145;BME280;14857;41.200;-8.326;2022-07-29T07:04:10;99968.75;;;33.02;61.66
18145;BME280;14857;41.200;-8.326;2022-07-29T07:06:41;100060.97;;;34.29;58.33
18145;BME280;14857;41.200;-8.326;2022-07-29T07:09:09;100019.19;;;34.45;57.29
18145;BME280;14857;41.200;-8.326;2022-07-29T07:11:39;100013.47;;;35.19;54.60
18145;BME280;14857;41.200;-8.326;2022-07-29T07:14:08;100009.66;;;35.80;52.28
18145;BME280;14857;41.200;-8.326;2022-07-29T07:16:37;100003.06;;;36.22;51.65
18145;BME280;14857;41.200;-8.326;2022-07-29T07:19:05;99962.59;;;36.49;49.71
18145;BME280;14857;41.200;-8.326;2022-07-29T07:21:46;100039.13;;;37.22;49.81
18145;BME280;14857;41.200;-8.326;2022-07-29T07:24:17;100075.09;;;38.02;47.27
18145;BME280;14857;41.200;-8.326;2022-07-29T07:26:47;100081.00;;;38.38;47.16
18145;BME280;14857;41.200;-8.326;2022-07-29T07:29:16;100027.16;;;38.38;46.20
18145;BME280;14857;41.200;-8.326;2022-07-29T07:31:45;100005.19;;;38.85;44.61
18145;BME280;14857;41.200;-8.326;2022-07-29T07:34:14;100057.41;;;37.89;46.14
18145;BME280;14857;41.200;-8.326;2022-07-29T07:36:54;100007.00;;;38.71;44.85
18145;BME280;14857;41.200;-8.326;2022-07-29T07:39:23;100023.38;;;38.76;45.33
18145;BME280;14857;41.200;-8.326;2022-07-29T07:41:57;100059.41;;;38.83;44.53
18145;BME280;14857;41.200;-8.326;2022-07-29T07:44:26;100024.34;;;39.55;43.01
18145;BME280;14857;41.200;-8.326;2022-07-29T07:46:54;99990.31;;;39.61;42.42
18145;BME280;14857;41.200;-8.326;2022-07-29T07:49:34;99973.50;;;39.17;42.69
18145;BME280;14857;41.200;-8.326;2022-07-29T07:52:03;100054.75;;;40.86;40.86
18145;BME280;14857;41.200;-8.326;2022-07-29T07:54:32;100045.84;;;40.81;40.63
18145;BME280;14857;41.200;-8.326;2022-07-29T07:57:04;100064.09;;;41.79;39.21
18145;BME280;14857;41.200;-8.326;2022-07-29T07:59:39;99991.59;;;39.96;41.08
18145;BME280;14857;41.200;-8.326;2022-07-29T08:02:14;100064.84;;;41.71;39.32
18145;BME280;14857;41.200;-8.326;2022-07-29T08:04:43;100057.50;;;41.36;39.26
18145;BME280;14857;41.200;-8.326;2022-07-29T08:07:12;100058.44;;;42.07;38.26
18145;BME280;14857;41.200;-8.326;2022-07-29T08:09:54;99940.97;;;40.93;38.29
18145;BME280;14857;41.200;-8.326;2022-07-29T08:12:24;100026.75;;;41.34;38.91
18145;BME280;14857;41.200;-8.326;2022-07-29T08:14:53;100059.34;;;41.94;38.16
18145;BME280;14857;41.200;-8.326;2022-07-29T08:17:22;100016.31;;;42.37;36.88
18145;BME280;14857;41.200;-8.326;2022-07-29T08:19:53;100024.28;;;42.47;36.81
18145;BME280;14857;41.200;-8.326;2022-07-29T08:22:22;100076.22;;;43.57;36.18
18145;BME280;14857;41.200;-8.326;2022-07-29T08:24:50;99985.47;;;42.91;36.21
18145;BME280;14857;41.200;-8.326;2022-07-29T08:27:24;100062.47;;;44.12;34.51
18145;BME280;14857;41.200;-8.326;2022-07-29T08:30:18;99998.78;;;43.96;34.29
18145;BME280;14857;41.200;-8.326;2022-07-29T08:32:48;99988.97;;;44.45;33.48
18145;BME280;14857;41.200;-8.326;2022-07-29T08:35:23;99944.00;;;43.39;35.03
18145;BME280;14857;41.200;-8.326;2022-07-29T08:37:56;99951.31;;;44.11;33.94
18145;BME280;14857;41.200;-8.326;2022-07-29T08:40:28;100037.38;;;44.42;34.40
18145;BME280;14857;41.200;-8.326;2022-07-29T08:43:04;100034.56;;;45.67;32.82
18145;BME280;14857;41.200;-8.326;2022-07-29T08:45:41;100015.31;;;45.25;32.71
18145;BME280;14857;41.200;-8.326;2022-07-29T08:48:15;100008.94;;;45.13;33.30
18145;BME280;14857;41.200;-8.326;2022-07-29T08:50:44;100006.22;;;45.25;32.62
18145;BME280;14857;41.200;-8.326;2022-07-29T08:53:16;100046.19;;;45.93;32.16
18145;BME280;14857;41.200;-8.326;2022-07-29T08:55:46;100035.28;;;46.21;31.76
18145;BME280;14857;41.200;-8.326;2022-07-29T08:58:17;100041.97;;;46.08;31.51
18145;BME280;14857;41.200;-8.326;2022-07-29T09:00:51;99939.88;;;46.82;30.02
18145;BME280;14857;41.200;-8.326;2022-07-29T09:03:24;100013.88;;;47.65;29.48
18145;BME280;14857;41.200;-8.326;2022-07-29T09:06:13;99993.88;;;46.76;30.09
18145;BME280;14857;41.200;-8.326;2022-07-29T09:08:43;99967.31;;;45.30;31.47
18145;BME280;14857;41.200;-8.326;2022-07-29T09:11:13;99963.03;;;44.37;32.26
18145;BME280;14857;41.200;-8.326;2022-07-29T09:13:43;99996.94;;;45.09;32.02
18145;BME280;14857;41.200;-8.326;2022-07-29T09:16:11;99958.22;;;44.97;31.57
18145;BME280;14857;41.200;-8.326;2022-07-29T09:19:00;100010.47;;;45.88;30.90
18145;BME280;14857;41.200;-8.326;2022-07-29T09:21:40;100008.78;;;46.08;30.22
18145;BME280;14857;41.200;-8.326;2022-07-29T09:24:40;99958.53;;;45.28;30.83
18145;BME280;14857;41.200;-8.326;2022-07-29T09:27:21;100004.81;;;45.84;30.69
18145;BME280;14857;41.200;-8.326;2022-07-29T09:29:58;99997.34;;;46.46;30.48
18145;BME280;14857;41.200;-8.326;2022-07-29T09:32:28;99944.22;;;46.56;29.45
18145;BME280;14857;41.200;-8.326;2022-07-29T09:35:19;100014.06;;;47.29;29.21
18145;BME280;14857;41.200;-8.326;2022-07-29T09:37:48;99945.44;;;44.71;31.56
18145;BME280;14857;41.200;-8.326;2022-07-29T09:40:19;100000.81;;;45.61;31.10
18145;BME280;14857;41.200;-8.326;2022-07-29T09:42:48;99976.91;;;45.77;30.70
18145;BME280;14857;41.200;-8.326;2022-07-29T09:45:28;99953.69;;;46.55;29.48
18145;BME280;14857;41.200;-8.326;2022-07-29T09:47:58;99987.41;;;45.39;31.52
18145;BME280;14857;41.200;-8.326;2022-07-29T09:50:37;99947.09;;;45.38;31.27
18145;BME280;14857;41.200;-8.326;2022-07-29T09:53:07;100003.09;;;46.28;30.93
18145;BME280;14857;41.200;-8.326;2022-07-29T09:55:47;99936.75;;;46.44;29.81
18145;BME280;14857;41.200;-8.326;2022-07-29T09:58:18;99993.41;;;45.53;30.89
18145;BME280;14857;41.200;-8.326;2022-07-29T10:00:50;100007.63;;;47.53;29.34
18145;BME280;14857;41.200;-8.326;2022-07-29T10:03:19;99961.97;;;47.50;28.68
18145;BME280;14857;41.200;-8.326;2022-07-29T10:06:04;99989.09;;;48.54;28.09
18145;BME280;14857;41.200;-8.326;2022-07-29T10:08:33;100013.84;;;48.78;28.02
18145;BME280;14857;41.200;-8.326;2022-07-29T10:11:09;99999.81;;;48.21;28.47
18145;BME280;14857;41.200;-8.326;2022-07-29T10:13:40;99997.09;;;47.46;28.99
18145;BME280;14857;41.200;-8.326;2022-07-29T10:16:11;99980.41;;;43.62;32.80
18145;BME280;14857;41.200;-8.326;2022-07-29T10:18:41;99936.47;;;44.74;31.59
18145;BME280;14857;41.200;-8.326;2022-07-29T10:21:10;99998.47;;;46.08;30.95
18145;BME280;14857;41.200;-8.326;2022-07-29T10:23:59;99947.22;;;46.63;30.16
18145;BME280;14857;41.200;-8.326;2022-07-29T10:26:28;99987.66;;;46.91;29.53
18145;BME280;14857;41.200;-8.326;2022-07-29T10:28:57;99941.16;;;46.73;29.51
18145;BME280;14857;41.200;-8.326;2022-07-29T10:31:33;99904.53;;;46.91;29.53
18145;BME280;14857;41.200;-8.326;2022-07-29T10:34:12;99940.03;;;47.02;29.30
18145;BME280;14857;41.200;-8.326;2022-07-29T10:36:53;99966.44;;;47.55;28.92
18145;BME280;14857;41.200;-8.326;2022-07-29T10:39:35;99977.34;;;46.28;30.15
18145;BME280;14857;41.200;-8.326;2022-07-29T10:42:16;99912.97;;;47.11;29.27
18145;BME280;14857;41.200;-8.326;2022-07-29T10:44:46;99893.94;;;47.25;28.97
18145;BME280;14857;41.200;-8.326;2022-07-29T10:47:24;99941.16;;;44.32;31.14
18145;BME280;14857;41.200;-8.326;2022-07-29T10:49:58;99932.28;;;45.22;31.42
18145;BME280;14857;41.200;-8.326;2022-07-29T10:52:52;99964.69;;;46.15;30.78
18145;BME280;14857;41.200;-8.326;2022-07-29T10:55:34;99909.03;;;44.69;31.27
18145;BME280;14857;41.200;-8.326;2022-07-29T10:58:14;99950.97;;;44.21;32.60
18145;BME280;14857;41.200;-8.326;2022-07-29T11:00:46;99928.63;;;42.96;33.69
18145;BME280;14857;41.200;-8.326;2022-07-29T11:03:45;99946.25;;;42.34;34.86
18145;BME280;14857;41.200;-8.326;2022-07-29T11:06:18;99942.38;;;43.38;33.61
18145;BME280;14857;41.200;-8.326;2022-07-29T11:09:16;99953.00;;;44.33;32.34
18145;BME280;14857;41.200;-8.326;2022-07-29T11:11:46;99945.06;;;46.32;29.95
18145;BME280;14857;41.200;-8.326;2022-07-29T11:17:30;99944.13;;;46.28;30.27
18145;BME280;14857;41.200;-8.326;2022-07-29T11:20:35;99943.16;;;46.60;29.44
18145;BME280;14857;41.200;-8.326;2022-07-29T11:23:22;99941.31;;;46.64;29.78
18145;BME280;14857;41.200;-8.326;2022-07-29T11:26:13;99938.72;;;46.83;29.62
18145;BME280;14857;41.200;-8.326;2022-07-29T11:28:58;99928.59;;;47.03;29.09
18145;BME280;14857;41.200;-8.326;2022-07-29T11:31:37;99845.63;;;46.95;28.72
18145;BME280;14857;41.200;-8.326;2022-07-29T11:34:20;99889.59;;;47.55;28.38
18145;BME280;14857;41.200;-8.326;2022-07-29T11:37:18;99942.69;;;47.26;28.82
18145;BME280;14857;41.200;-8.326;2022-07-29T11:40:15;99932.31;;;47.23;28.51
18145;BME280;14857;41.200;-8.326;2022-07-29T11:42:48;99919.22;;;47.08;29.13
18145;BME280;14857;41.200;-8.326;2022-07-29T11:45:25;99914.03;;;46.38;29.09
18145;BME280;14857;41.200;-8.326;2022-07-29T11:48:18;99923.78;;;45.27;30.44
18145;BME280;14857;41.200;-8.326;2022-07-29T11:50:59;99856.25;;;43.88;30.11
18145;BME280;14857;41.200;-8.326;2022-07-29T11:53:30;99831.19;;;42.62;31.98
18145;BME280;14857;41.200;-8.326;2022-07-29T11:56:00;99910.66;;;38.74;35.83
18145;BME280;14857;41.200;-8.326;2022-07-29T11:58:30;99869.63;;;37.52;39.61
18145;BME280;14857;41.200;-8.326;2022-07-29T12:00:59;99913.38;;;36.79;40.67
18145;BME280;14857;41.200;-8.326;2022-07-29T12:03:31;99905.06;;;35.92;43.52
18145;BME280;14857;41.200;-8.326;2022-07-29T12:06:10;99842.56;;;35.51;42.79
18145;BME280;14857;41.200;-8.326;2022-07-29T12:08:43;99906.69;;;35.98;44.08
18145;BME280;14857;41.200;-8.326;2022-07-29T12:11:16;99881.75;;;35.55;44.16
18145;BME280;14857;41.200;-8.326;2022-07-29T12:13:48;99896.44;;;35.69;44.31
18145;BME280;14857;41.200;-8.326;2022-07-29T12:16:17;99899.72;;;35.66;44.25
18145;BME280;14857;41.200;-8.326;2022-07-29T12:18:59;99871.41;;;35.62;44.93
18145;BME280;14857;41.200;-8.326;2022-07-29T12:21:29;99816.28;;;34.91;46.21
18145;BME280;14857;41.200;-8.326;2022-07-29T12:23:59;99898.66;;;35.32;47.67
18145;BME280;14857;41.200;-8.326;2022-07-29T12:26:35;99831.22;;;34.84;48.09
18145;BME280;14857;41.200;-8.326;2022-07-29T12:29:06;99820.06;;;34.80;49.42
18145;BME280;14857;41.200;-8.326;2022-07-29T12:31:42;99788.03;;;34.62;50.15
18145;BME280;14857;41.200;-8.326;2022-07-29T12:34:12;99883.69;;;34.74;51.57
18145;BME280;14857;41.200;-8.326;2022-07-29T12:36:42;99830.94;;;34.35;51.16
18145;BME280;14857;41.200;-8.326;2022-07-29T12:39:12;99880.19;;;34.73;51.33
18145;BME280;14857;41.200;-8.326;2022-07-29T12:41:41;99793.13;;;34.23;51.98
18145;BME280;14857;41.200;-8.326;2022-07-29T12:44:10;99801.00;;;34.19;51.77
18145;BME280;14857;41.200;-8.326;2022-07-29T12:46:39;99752.84;;;33.85;52.19
18145;BME280;14857;41.200;-8.326;2022-07-29T12:49:08;99789.31;;;34.14;51.63
18145;BME280;14857;41.200;-8.326;2022-07-29T12:51:39;99841.03;;;34.69;51.43
18145;BME280;14857;41.200;-8.326;2022-07-29T12:54:09;99787.28;;;33.69;52.60
18145;BME280;14857;41.200;-8.326;2022-07-29T12:56:41;99794.13;;;33.97;51.76
18145;BME280;14857;41.200;-8.326;2022-07-29T12:59:16;99837.16;;;34.30;52.51
18145;BME280;14857;41.200;-8.326;2022-07-29T13:01:46;99805.56;;;34.04;51.92
18145;BME280;14857;41.200;-8.326;2022-07-29T13:04:26;99851.84;;;34.49;53.51
18145;BME280;14857;41.200;-8.326;2022-07-29T13:06:59;99867.66;;;34.62;52.81
18145;BME280;14857;41.200;-8.326;2022-07-29T13:09:38;99850.25;;;34.68;51.31
18145;BME280;14857;41.200;-8.326;2022-07-29T13:12:10;99851.34;;;34.88;50.82
18145;BME280;14857;41.200;-8.326;2022-07-29T13:14:40;99832.03;;;34.94;51.10
18145;BME280;14857;41.200;-8.326;2022-07-29T13:17:10;99833.94;;;35.04;52.73
18145;BME280;14857;41.200;-8.326;2022-07-29T13:19:41;99851.34;;;34.77;50.90
18145;BME280;14857;41.200;-8.326;2022-07-29T13:22:11;99836.34;;;34.40;50.92
18145;BME280;14857;41.200;-8.326;2022-07-29T13:24:50;99743.03;;;33.68;51.15